createdAt,value
2023-07-01T00:01:35.468Z,24.74
2023-07-01T00:04:04.450Z,24.76
2023-07-01T00:06:33.228Z,24.76
2023-07-01T00:09:01.827Z,24.78
2023-07-01T00:11:30.940Z,24.74
2023-07-01T00:14:00.862Z,24.77
2023-07-01T00:16:29.887Z,24.74
2023-07-01T00:19:19.308Z,24.72
2023-07-01T00:21:47.478Z,24.73
2023-07-01T00:24:16.056Z,24.71
2023-07-01T00:26:44.334Z,24.72
2023-07-01T00:29:14.785Z,24.72
2023-07-01T00:31:43.712Z,24.71
2023-07-01T00:34:12.163Z,24.63
2023-07-01T00:36:40.445Z,24.58
2023-07-01T00:39:09.350Z,24.56
2023-07-01T00:41:37.502Z,24.53
2023-07-01T00:44:06.306Z,24.53
2023-07-01T00:46:36.820Z,24.49
2023-07-01T00:49:05.424Z,24.50
2023-07-01T00:51:33.730Z,24.51
2023-07-01T00:54:02.095Z,24.51
2023-07-01T00:56:30.198Z,24.49
2023-07-01T00:58:58.479Z,24.50
2023-07-01T01:01:35.196Z,24.46
2023-07-01T01:04:10.906Z,24.44
2023-07-01T01:06:44.739Z,24.42
2023-07-01T01:09:18.491Z,24.42
2023-07-01T01:11:48.625Z,24.37
2023-07-01T01:14:18.758Z,24.45
2023-07-01T01:16:50.734Z,24.47
2023-07-01T01:19:39.248Z,24.45
2023-07-01T01:22:17.456Z,24.25
2023-07-01T01:24:49.311Z,24.16
2023-07-01T01:27:24.031Z,24.06
2023-07-01T01:29:53.773Z,24.05
2023-07-01T01:32:24.093Z,23.97
2023-07-01T01:34:52.337Z,23.93
2023-07-01T01:37:27.020Z,23.90
2023-07-01T01:40:02.760Z,23.88
2023-07-01T01:42:36.706Z,23.83
2023-07-01T01:45:08.606Z,23.77
2023-07-01T01:47:38.563Z,23.73
2023-07-01T01:50:11.665Z,23.69
2023-07-01T01:52:42.560Z,23.65
2023-07-01T01:55:14.996Z,23.66
2023-07-01T01:57:43.440Z,23.60
2023-07-01T02:00:14.334Z,23.60
2023-07-01T02:02:42.892Z,23.57
2023-07-01T02:05:11.565Z,23.50
2023-07-01T02:07:40.534Z,23.44
2023-07-01T02:10:09.734Z,23.39
2023-07-01T02:12:38.216Z,23.37
2023-07-01T02:15:07.253Z,23.32
2023-07-01T02:17:36.873Z,23.32
2023-07-01T02:20:06.521Z,23.28
2023-07-01T02:22:34.785Z,23.27
2023-07-01T02:25:02.958Z,23.25
2023-07-01T02:27:32.252Z,23.20
2023-07-01T02:30:00.388Z,23.15
2023-07-01T02:32:28.725Z,23.08
2023-07-01T02:34:58.630Z,23.03
2023-07-01T02:37:27.422Z,22.99
2023-07-01T02:39:55.510Z,22.91
2023-07-01T02:42:23.773Z,22.83
2023-07-01T02:44:51.893Z,22.77
2023-07-01T02:47:20.749Z,22.72
2023-07-01T02:49:50.623Z,22.66
2023-07-01T02:52:20.232Z,22.60
2023-07-01T02:54:48.768Z,22.54
2023-07-01T02:57:16.833Z,22.51
2023-07-01T02:59:45.232Z,22.45
2023-07-01T03:02:13.844Z,22.40
2023-07-01T03:04:42.231Z,22.46
2023-07-01T03:07:10.639Z,22.41
2023-07-01T03:09:40.412Z,22.35
2023-07-01T03:12:09.199Z,22.29
2023-07-01T03:14:37.791Z,22.30
2023-07-01T03:17:06.938Z,22.26
2023-07-01T03:19:37.639Z,22.22
2023-07-01T03:22:07.429Z,22.23
2023-07-01T03:24:35.671Z,22.18
2023-07-01T03:27:07.178Z,22.17
2023-07-01T03:29:35.687Z,22.09
2023-07-01T03:32:04.959Z,22.06
2023-07-01T03:34:33.146Z,22.07
2023-07-01T03:37:01.410Z,22.04
2023-07-01T03:39:29.680Z,22.01
2023-07-01T03:41:57.799Z,22.02
2023-07-01T03:44:27.782Z,21.97
2023-07-01T03:46:55.932Z,22.00
2023-07-01T03:49:24.128Z,22.03
2023-07-01T03:51:52.745Z,22.07
2023-07-01T03:54:21.010Z,22.02
2023-07-01T03:56:49.181Z,22.08
2023-07-01T03:59:17.609Z,22.10
2023-07-01T04:01:47.198Z,22.10
2023-07-01T04:04:15.744Z,22.14
2023-07-01T04:06:44.464Z,22.09
2023-07-01T04:09:13.945Z,22.10
2023-07-01T04:11:42.635Z,22.16
2023-07-01T04:14:10.867Z,22.20
2023-07-01T04:16:39.074Z,22.22
2023-07-01T04:19:09.333Z,22.22
2023-07-01T04:21:37.601Z,22.26
2023-07-01T04:24:07.686Z,22.25
2023-07-01T04:26:36.375Z,22.30
2023-07-01T04:29:05.433Z,22.38
2023-07-01T04:31:33.792Z,22.41
2023-07-01T04:34:02.217Z,22.47
2023-07-01T04:36:31.759Z,22.52
2023-07-01T04:38:59.857Z,22.57
2023-07-01T04:41:28.407Z,22.60
2023-07-01T04:43:58.186Z,22.63
2023-07-01T04:46:26.362Z,22.65
2023-07-01T04:48:54.800Z,22.73
2023-07-01T04:51:23.262Z,22.74
2023-07-01T04:53:52.698Z,22.77
2023-07-01T04:56:25.027Z,22.82
2023-07-01T04:58:53.875Z,22.83
2023-07-01T05:01:22.297Z,22.87
2023-07-01T05:03:50.423Z,22.93
2023-07-01T05:06:18.660Z,23.00
2023-07-01T05:08:47.666Z,23.04
2023-07-01T05:11:17.510Z,23.07
2023-07-01T05:13:46.230Z,23.13
2023-07-01T05:16:15.054Z,23.26
2023-07-01T05:18:43.365Z,23.31
2023-07-01T05:21:11.518Z,23.31
2023-07-01T05:23:40.053Z,23.34
2023-07-01T05:26:08.252Z,23.42
2023-07-01T05:28:37.822Z,23.45
2023-07-01T05:31:06.354Z,23.48
2023-07-01T05:33:34.670Z,23.38
2023-07-01T05:36:03.036Z,23.53
2023-07-01T05:38:31.345Z,23.64
2023-07-01T05:40:59.560Z,23.66
2023-07-01T05:43:28.701Z,23.73
2023-07-01T05:45:58.637Z,23.73
2023-07-01T05:48:26.798Z,23.83
2023-07-01T05:50:55.029Z,23.91
2023-07-01T05:53:23.364Z,23.94
2023-07-01T05:55:51.384Z,24.09
2023-07-01T05:58:19.474Z,24.17
2023-07-01T06:00:48.131Z,24.25
2023-07-01T06:03:18.010Z,24.35
2023-07-01T06:05:46.100Z,24.45
2023-07-01T06:08:14.367Z,24.49
2023-07-01T06:10:42.829Z,24.64
2023-07-01T06:13:10.932Z,24.78
2023-07-01T06:15:39.034Z,24.90
2023-07-01T06:18:07.558Z,24.88
2023-07-01T06:20:36.999Z,25.00
2023-07-01T06:23:05.278Z,25.12
2023-07-01T06:25:33.952Z,25.32
2023-07-01T06:28:02.040Z,25.14
2023-07-01T06:30:30.576Z,25.05
2023-07-01T06:32:59.001Z,25.21
2023-07-01T06:35:27.502Z,25.30
2023-07-01T06:37:57.076Z,25.43
2023-07-01T06:40:25.514Z,25.46
2023-07-01T06:42:53.842Z,25.60
2023-07-01T06:45:22.054Z,25.64
2023-07-01T06:47:50.760Z,25.77
2023-07-01T06:50:18.998Z,25.84
2023-07-01T06:52:48.241Z,25.95
2023-07-01T06:55:19.487Z,26.00
2023-07-01T06:57:47.731Z,26.12
2023-07-01T07:00:16.090Z,26.23
2023-07-01T07:02:44.619Z,26.43
2023-07-01T07:05:12.752Z,26.47
2023-07-01T07:07:40.984Z,26.65
2023-07-01T07:10:10.158Z,26.91
2023-07-01T07:12:39.899Z,26.90
2023-07-01T07:15:09.407Z,26.76
2023-07-01T07:17:37.940Z,26.98
2023-07-01T07:20:06.982Z,27.16
2023-07-01T07:22:35.237Z,27.31
2023-07-01T07:25:04.123Z,27.55
2023-07-01T07:27:33.530Z,27.54
2023-07-01T07:30:05.581Z,27.81
2023-07-01T07:32:34.441Z,27.64
2023-07-01T07:35:02.685Z,27.78
2023-07-01T07:37:31.162Z,27.97
2023-07-01T07:40:00.948Z,28.16
2023-07-01T07:42:29.387Z,28.18
2023-07-01T07:44:57.539Z,28.34
2023-07-01T07:47:28.300Z,28.39
2023-07-01T07:49:56.515Z,28.54
2023-07-01T07:52:25.120Z,28.70
2023-07-01T07:54:53.663Z,28.71
2023-07-01T07:57:21.916Z,28.82
2023-07-01T07:59:50.091Z,28.74
2023-07-01T08:02:18.603Z,29.08
2023-07-01T08:04:48.273Z,29.06
2023-07-01T08:07:16.866Z,29.10
2023-07-01T08:09:44.980Z,29.29
2023-07-01T08:12:13.328Z,29.37
2023-07-01T08:14:41.878Z,29.38
2023-07-01T08:17:10.129Z,29.37
2023-07-01T08:19:38.497Z,29.54
2023-07-01T08:22:08.265Z,29.76
2023-07-01T08:24:37.184Z,29.74
2023-07-01T08:27:06.002Z,29.88
2023-07-01T08:29:34.094Z,30.11
2023-07-01T08:32:02.172Z,30.37
2023-07-01T08:34:30.758Z,30.48
2023-07-01T08:36:59.583Z,30.59
2023-07-01T08:39:29.776Z,30.50
2023-07-01T08:42:01.460Z,30.66
2023-07-01T08:44:30.130Z,30.54
2023-07-01T08:47:00.127Z,30.56
2023-07-01T08:49:29.924Z,30.70
2023-07-01T08:52:07.546Z,30.70
2023-07-01T08:54:38.018Z,30.88
2023-07-01T08:57:07.751Z,30.79
2023-07-01T08:59:36.116Z,30.51
2023-07-01T09:02:04.565Z,30.81
2023-07-01T09:04:33.506Z,30.87
2023-07-01T09:07:02.012Z,31.07
2023-07-01T09:09:30.237Z,31.33
2023-07-01T09:11:59.959Z,31.39
2023-07-01T09:14:28.202Z,31.38
2023-07-01T09:16:56.752Z,31.69
2023-07-01T09:19:25.250Z,31.52
2023-07-01T09:22:09.389Z,31.77
2023-07-01T09:24:39.814Z,32.07
2023-07-01T09:27:10.228Z,31.93
2023-07-01T09:29:41.632Z,31.61
2023-07-01T09:32:10.337Z,31.92
2023-07-01T09:34:53.971Z,32.35
2023-07-01T09:37:22.157Z,32.48
2023-07-01T09:39:50.891Z,32.16
2023-07-01T09:42:21.145Z,32.15
2023-07-01T09:45:09.689Z,32.28
2023-07-01T09:47:38.916Z,32.58
2023-07-01T09:50:08.388Z,32.58
2023-07-01T09:52:38.359Z,32.36
2023-07-01T09:55:09.623Z,32.32
2023-07-01T09:57:40.520Z,32.57
2023-07-01T10:00:13.365Z,32.98
2023-07-01T10:02:42.132Z,33.14
2023-07-01T10:05:11.016Z,33.14
2023-07-01T10:07:39.190Z,33.14
2023-07-01T10:10:22.366Z,32.71
2023-07-01T10:13:08.778Z,33.69
2023-07-01T10:15:43.616Z,33.27
2023-07-01T10:18:23.228Z,33.87
2023-07-01T10:20:52.567Z,33.33
2023-07-01T10:23:23.540Z,33.58
2023-07-01T10:25:57.582Z,33.86
2023-07-01T10:28:36.075Z,33.62
2023-07-01T10:31:20.613Z,33.22
2023-07-01T10:33:58.305Z,33.74
2023-07-01T10:36:38.338Z,33.64
2023-07-01T10:39:46.073Z,33.61
2023-07-01T10:42:32.311Z,33.52
2023-07-01T10:45:34.149Z,33.04
2023-07-01T10:48:17.572Z,33.40
2023-07-01T10:51:02.907Z,33.44
2023-07-01T10:53:31.465Z,33.49
2023-07-01T10:56:16.324Z,33.88
2023-07-01T10:58:45.128Z,33.31
2023-07-01T11:01:45.206Z,33.65
2023-07-01T11:04:15.021Z,33.54
2023-07-01T11:06:51.495Z,33.63
2023-07-01T11:09:30.043Z,34.20
2023-07-01T11:11:58.791Z,33.96
2023-07-01T11:14:34.868Z,34.29
2023-07-01T11:17:08.725Z,34.25
2023-07-01T11:19:39.131Z,34.01
2023-07-01T11:22:08.106Z,34.61
2023-07-01T11:24:38.089Z,34.77
2023-07-01T11:27:09.416Z,34.72
2023-07-01T11:29:42.035Z,34.79
2023-07-01T11:32:13.974Z,34.94
2023-07-01T11:34:46.338Z,35.03
2023-07-01T11:37:25.290Z,35.02
2023-07-01T11:39:54.667Z,34.68
2023-07-01T11:42:23.128Z,34.86
2023-07-01T11:44:51.505Z,35.04
2023-07-01T11:47:20.110Z,34.99
2023-07-01T11:49:49.922Z,35.04
2023-07-01T11:52:24.870Z,34.76
2023-07-01T11:54:55.847Z,34.56
2023-07-01T11:57:25.413Z,34.47
2023-07-01T11:59:55.750Z,34.57
2023-07-01T12:02:28.689Z,34.37
2023-07-01T12:04:58.886Z,34.63
2023-07-01T12:07:27.069Z,34.68
2023-07-01T12:09:55.503Z,34.68
2023-07-01T12:12:39.145Z,34.83
2023-07-01T12:15:10.642Z,34.39
2023-07-01T12:17:39.941Z,34.76
2023-07-01T12:20:11.331Z,34.29
2023-07-01T12:22:40.766Z,34.52
2023-07-01T12:25:10.070Z,34.61
2023-07-01T12:27:38.959Z,34.34
2023-07-01T12:30:11.069Z,34.50
2023-07-01T12:32:41.729Z,34.90
2023-07-01T12:35:12.016Z,34.78
2023-07-01T12:37:41.908Z,34.78
2023-07-01T12:40:12.025Z,34.61
2023-07-01T12:42:40.226Z,34.53
2023-07-01T12:45:09.409Z,34.18
2023-07-01T12:47:41.179Z,34.24
2023-07-01T12:50:11.802Z,34.10
2023-07-01T12:52:41.039Z,33.72
2023-07-01T12:55:11.098Z,33.63
2023-07-01T12:57:41.114Z,33.54
2023-07-01T13:00:11.185Z,33.21
2023-07-01T13:02:40.230Z,33.01
2023-07-01T13:05:12.066Z,32.84
2023-07-01T13:07:41.049Z,32.71
2023-07-01T13:10:12.706Z,32.64
2023-07-01T13:12:41.613Z,32.72
2023-07-01T13:15:21.437Z,32.54
2023-07-01T13:17:53.752Z,32.34
2023-07-01T13:20:27.890Z,32.19
2023-07-01T13:22:58.295Z,32.23
2023-07-01T13:25:27.244Z,32.33
2023-07-01T13:27:56.145Z,31.94
2023-07-01T13:30:41.688Z,31.74
2023-07-01T13:33:11.080Z,31.74
2023-07-01T13:35:41.149Z,31.77
2023-07-01T13:38:10.496Z,31.65
2023-07-01T13:40:42.742Z,31.87
2023-07-01T13:43:19.719Z,31.89
2023-07-01T13:45:48.765Z,32.43
2023-07-01T13:48:32.898Z,32.38
2023-07-01T13:51:03.727Z,32.67
2023-07-01T13:53:33.567Z,32.66
2023-07-01T13:56:03.568Z,32.43
2023-07-01T13:58:42.057Z,32.75
2023-07-01T14:01:11.894Z,33.14
2023-07-01T14:03:57.416Z,33.23
2023-07-01T14:06:27.179Z,33.30
2023-07-01T14:08:55.700Z,33.50
2023-07-01T14:11:29.393Z,33.40
2023-07-01T14:14:01.857Z,33.35
2023-07-01T14:16:31.798Z,33.49
2023-07-01T14:19:00.974Z,33.27
2023-07-01T14:21:36.500Z,32.98
2023-07-01T14:24:06.708Z,32.81
2023-07-01T14:26:42.788Z,32.51
2023-07-01T14:29:18.451Z,32.65
2023-07-01T14:31:51.946Z,32.61
2023-07-01T14:34:29.479Z,32.67
2023-07-01T14:37:00.168Z,32.59
2023-07-01T14:39:46.247Z,32.56
2023-07-01T14:42:21.891Z,32.21
2023-07-01T14:44:52.364Z,32.21
2023-07-01T14:47:22.207Z,32.19
2023-07-01T14:49:51.179Z,32.24
2023-07-01T14:52:24.854Z,32.23
2023-07-01T14:54:55.632Z,32.22
2023-07-01T14:57:25.633Z,32.39
2023-07-01T15:00:06.372Z,32.35
2023-07-01T15:02:39.273Z,32.24
2023-07-01T15:05:08.576Z,32.46
2023-07-01T15:07:41.591Z,32.38
2023-07-01T15:10:10.542Z,32.08
2023-07-01T15:12:38.963Z,32.00
2023-07-01T15:15:08.917Z,32.05
2023-07-01T15:17:38.424Z,31.88
2023-07-01T15:20:07.744Z,31.70
2023-07-01T15:22:35.903Z,31.61
2023-07-01T15:25:05.970Z,31.74
2023-07-01T15:27:34.158Z,31.47
2023-07-01T15:30:05.494Z,31.40
2023-07-01T15:32:34.846Z,31.37
2023-07-01T15:35:22.498Z,31.36
2023-07-01T15:38:03.454Z,31.34
2023-07-01T15:40:32.987Z,31.39
2023-07-01T15:43:01.518Z,31.36
2023-07-01T15:45:29.891Z,31.29
2023-07-01T15:47:58.220Z,30.96
2023-07-01T15:50:26.765Z,31.02
2023-07-01T15:52:54.977Z,30.82
2023-07-01T15:55:23.144Z,30.81
2023-07-01T15:57:52.998Z,30.73
2023-07-01T16:00:21.230Z,30.83
2023-07-01T16:02:49.785Z,30.72
2023-07-01T16:05:18.705Z,30.71
2023-07-01T16:07:54.062Z,30.72
2023-07-01T16:10:23.350Z,30.76
2023-07-01T16:12:53.983Z,30.70
2023-07-01T16:15:23.584Z,30.44
2023-07-01T16:17:54.053Z,30.30
2023-07-01T16:21:03.292Z,30.45
2023-07-01T16:23:33.055Z,30.13
2023-07-01T16:26:05.633Z,30.20
2023-07-01T16:28:44.566Z,29.93
2023-07-01T16:31:19.036Z,29.93
2023-07-01T16:33:47.573Z,30.11
2023-07-01T16:36:26.571Z,30.13
2023-07-01T16:39:00.657Z,30.08
2023-07-01T16:41:32.298Z,30.21
2023-07-01T16:44:02.000Z,30.21
2023-07-01T16:46:34.525Z,30.05
2023-07-01T16:49:04.740Z,30.13
2023-07-01T16:51:35.319Z,29.81
2023-07-01T16:54:16.025Z,29.79
2023-07-01T16:56:48.976Z,29.77
2023-07-01T16:59:39.304Z,29.61
2023-07-01T17:02:39.411Z,29.57
2023-07-01T17:05:12.354Z,29.73
2023-07-01T17:07:42.527Z,29.56
2023-07-01T17:10:37.573Z,29.61
2023-07-01T17:13:08.230Z,29.54
2023-07-01T17:15:42.747Z,29.16
2023-07-01T17:18:18.379Z,29.27
2023-07-01T17:20:46.990Z,29.08
2023-07-01T17:23:15.696Z,29.19
2023-07-01T17:25:43.951Z,29.03
2023-07-01T17:28:12.123Z,29.22
2023-07-01T17:30:42.035Z,29.22
2023-07-01T17:33:10.622Z,28.96
2023-07-01T17:35:39.219Z,29.02
2023-07-01T17:38:07.826Z,28.90
2023-07-01T17:40:36.061Z,28.43
2023-07-01T17:43:04.471Z,28.09
2023-07-01T17:45:33.185Z,27.94
2023-07-01T17:48:03.327Z,27.71
2023-07-01T17:50:49.437Z,27.53
2023-07-01T17:53:19.526Z,27.47
2023-07-01T17:55:47.977Z,27.16
2023-07-01T17:58:16.470Z,26.89
2023-07-01T18:00:45.084Z,26.88
2023-07-01T18:03:15.196Z,26.83
2023-07-01T18:05:43.557Z,26.74
2023-07-01T18:08:11.751Z,26.64
2023-07-01T18:10:40.994Z,26.64
2023-07-01T18:13:09.238Z,26.64
2023-07-01T18:15:37.350Z,26.62
2023-07-01T18:18:05.904Z,26.51
2023-07-01T18:20:49.117Z,26.18
2023-07-01T18:23:22.731Z,25.99
2023-07-01T18:25:50.913Z,26.01
2023-07-01T18:28:19.254Z,25.98
2023-07-01T18:30:47.647Z,25.82
2023-07-01T18:33:15.787Z,25.79
2023-07-01T18:35:45.373Z,25.75
2023-07-01T18:38:14.058Z,25.80
2023-07-01T18:40:42.123Z,25.78
2023-07-01T18:43:10.331Z,25.84
2023-07-01T18:45:38.705Z,25.79
2023-07-01T18:48:07.281Z,25.82
2023-07-01T18:50:35.358Z,25.90
2023-07-01T18:53:05.111Z,25.94
2023-07-01T18:55:33.262Z,25.99
2023-07-01T18:58:01.424Z,25.94
2023-07-01T19:00:29.902Z,25.96
2023-07-01T19:02:58.170Z,25.87
2023-07-01T19:05:26.363Z,25.81
2023-07-01T19:07:54.867Z,25.69
2023-07-01T19:10:24.308Z,25.85
2023-07-01T19:12:52.379Z,25.75
2023-07-01T19:15:20.954Z,25.79
2023-07-01T19:17:49.070Z,25.58
2023-07-01T19:20:39.509Z,25.71
2023-07-01T19:23:07.964Z,25.57
2023-07-01T19:25:38.641Z,25.61
2023-07-01T19:28:08.151Z,25.50
2023-07-01T19:30:38.510Z,25.48
2023-07-01T19:33:07.598Z,25.56
2023-07-01T19:35:35.756Z,25.47
2023-07-01T19:38:04.055Z,25.56
2023-07-01T19:40:32.211Z,25.47
2023-07-01T19:43:01.694Z,25.43
2023-07-01T19:45:30.103Z,25.46
2023-07-01T19:47:58.300Z,25.51
2023-07-01T19:50:26.374Z,25.50
2023-07-01T19:52:54.751Z,25.54
2023-07-01T19:55:23.949Z,25.41
2023-07-01T19:57:52.303Z,25.44
2023-07-01T20:00:23.383Z,25.48
2023-07-01T20:02:53.045Z,25.47
2023-07-01T20:05:23.163Z,25.52
2023-07-01T20:07:51.807Z,25.52
2023-07-01T20:10:30.059Z,25.55
2023-07-01T20:13:00.059Z,25.51
2023-07-01T20:15:29.928Z,25.42
2023-07-01T20:17:58.634Z,25.32
2023-07-01T20:20:27.138Z,25.28
2023-07-01T20:22:55.250Z,25.25
2023-07-01T20:25:23.358Z,25.32
2023-07-01T20:27:51.768Z,25.28
2023-07-01T20:30:20.228Z,25.27
2023-07-01T20:32:49.730Z,25.27
2023-07-01T20:35:19.008Z,25.31
2023-07-01T20:37:47.610Z,25.29
2023-07-01T20:40:15.802Z,25.18
2023-07-01T20:42:45.430Z,25.18
2023-07-01T20:45:13.667Z,25.16
2023-07-01T20:47:42.495Z,25.16
2023-07-01T20:50:12.965Z,25.09
2023-07-01T20:52:41.205Z,25.07
2023-07-01T20:55:11.135Z,25.11
2023-07-01T20:57:39.502Z,25.11
2023-07-01T21:00:08.956Z,25.15
2023-07-01T21:02:37.096Z,25.14
2023-07-01T21:05:06.337Z,25.18
2023-07-01T21:07:35.692Z,25.11
2023-07-01T21:10:04.043Z,25.12
2023-07-01T21:12:32.508Z,25.12
2023-07-01T21:15:00.728Z,25.10
2023-07-01T21:17:30.950Z,25.07
2023-07-01T21:19:59.335Z,25.03
2023-07-01T21:22:27.649Z,25.06
2023-07-01T21:24:57.103Z,25.09
2023-07-01T21:28:01.220Z,25.05
2023-07-01T21:30:35.888Z,25.10
2023-07-01T21:33:04.711Z,25.05
2023-07-01T21:35:36.179Z,25.09
2023-07-01T21:38:06.570Z,25.12
2023-07-01T21:40:39.375Z,25.17
2023-07-01T21:43:16.992Z,25.13
2023-07-01T21:45:45.801Z,25.10
2023-07-01T21:48:15.694Z,25.10
2023-07-01T21:50:59.418Z,25.09
2023-07-01T21:53:30.616Z,25.13
2023-07-01T21:56:01.521Z,25.11
2023-07-01T21:58:33.153Z,25.09
2023-07-01T22:01:07.483Z,25.01
2023-07-01T22:03:37.563Z,25.00
2023-07-01T22:06:08.718Z,25.03
2023-07-01T22:08:37.144Z,25.04
2023-07-01T22:11:06.568Z,25.00
2023-07-01T22:13:34.810Z,25.03
2023-07-01T22:16:03.366Z,25.06
2023-07-01T22:18:31.697Z,25.09
2023-07-01T22:21:00.266Z,25.00
2023-07-01T22:23:30.396Z,25.04
2023-07-01T22:25:58.796Z,25.05
2023-07-01T22:28:30.168Z,25.06
2023-07-01T22:30:59.970Z,25.09
2023-07-01T22:33:28.781Z,25.07
2023-07-01T22:35:57.458Z,25.07
2023-07-01T22:38:28.764Z,25.05
2023-07-01T22:40:57.924Z,25.01
2023-07-01T22:43:27.724Z,24.94
2023-07-01T22:45:55.761Z,24.96
2023-07-01T22:48:24.107Z,24.91
2023-07-01T22:50:52.857Z,24.94
2023-07-01T22:53:21.559Z,24.94
2023-07-01T22:55:49.575Z,24.94
2023-07-01T22:58:18.138Z,24.93
2023-07-01T23:00:47.717Z,24.91
2023-07-01T23:03:16.340Z,24.93
2023-07-01T23:05:44.909Z,24.96
2023-07-01T23:08:13.092Z,24.94
2023-07-01T23:10:41.177Z,24.92
2023-07-01T23:13:09.650Z,24.96
2023-07-01T23:15:38.476Z,24.83
2023-07-01T23:18:10.551Z,24.85
2023-07-01T23:20:40.153Z,24.88
2023-07-01T23:23:08.536Z,24.81
2023-07-01T23:25:36.750Z,24.80
2023-07-01T23:28:11.144Z,24.81
2023-07-01T23:30:40.557Z,24.73
2023-07-01T23:33:11.680Z,24.74
2023-07-01T23:35:39.956Z,24.80
2023-07-01T23:38:08.370Z,24.79
2023-07-01T23:40:36.633Z,24.81
2023-07-01T23:43:04.802Z,24.80
2023-07-01T23:45:33.136Z,24.85
2023-07-01T23:48:01.381Z,24.77
2023-07-01T23:50:30.893Z,24.72
2023-07-01T23:52:59.175Z,24.78
2023-07-01T23:55:27.394Z,24.78
2023-07-01T23:57:56.634Z,24.78
